Terminal Aerodrome Forecast
Issued by NWS Wichita, KS

Home | Current Version | Previous Version | Graphics & Text | Print | Product List | Glossary On
Versions: 1 2 3 4 5 6 7 8 9 10 11 12 13 14 15 16 17 18 19 20 21
000
FTUS43 KICT 240440 AAC
TAFICT
TAF AMD
KICT 240440Z 2405/2424 13017KT P6SM OVC015
     FM240800 14017KT P6SM OVC007
     FM241000 15009KT 3SM -DZ BR OVC005
     FM241400 17017KT P6SM OVC008
     FM241600 18017KT P6SM SCT020 BKN150=

USA.gov is the U.S. government's official web portal to all federal, state and local government web resources and services.